Time;durP1;ratioP1;P1;durP2;ratioP2;P2;SDS_P1;SDS_P2;PMS_P1;PMS_P2;Temp;Humidity;BMP_temperature;BMP_pressure;BME280_temperature;BME280_humidity;BME280_pressure;Samples;Min_cycle;Max_cycle;Signal;HPM_P1;HPM_P2
2022/03/06 00:02:22;;;;;;;16.73;12.53;;;;;;;0.08;78.46;100641.78;5005264;28;20190;-56
2022/03/06 00:04:48;;;;;;;16.03;11.63;;;;;;;0.05;78.36;100645.09;5004091;28;20300;-54
2022/03/06 00:07:13;;;;;;;15.70;12.33;;;;;;;0.03;78.43;100645.84;4999661;28;20549;-54
2022/03/06 00:09:38;;;;;;;14.93;12.40;;;;;;;0.02;78.17;100642.41;5005805;28;20216;-54
2022/03/06 00:12:04;;;;;;;15.53;11.87;;;;;;;0.04;77.29;100640.81;5006251;28;20192;-55
2022/03/06 00:14:30;;;;;;;13.83;11.13;;;;;;;0.02;77.67;100639.88;5004241;28;20690;-54
2022/03/06 00:16:55;;;;;;;15.83;11.93;;;;;;;-0.05;77.87;100641.31;5006978;28;20195;-54
2022/03/06 00:19:20;;;;;;;14.87;11.97;;;;;;;-0.07;77.66;100637.84;5002742;28;20173;-54
2022/03/06 00:21:46;;;;;;;15.63;12.07;;;;;;;-0.04;77.66;100643.06;5004367;28;20188;-54
2022/03/06 00:24:11;;;;;;;13.53;10.83;;;;;;;-0.08;77.82;100642.88;5002885;28;20924;-54
2022/03/06 00:26:37;;;;;;;14.77;11.77;;;;;;;-0.04;77.56;100637.97;5000628;28;20196;-54
2022/03/06 00:29:03;;;;;;;13.23;11.00;;;;;;;-0.08;77.57;100635.25;5012009;28;20226;-54
2022/03/06 00:31:29;;;;;;;17.07;12.67;;;;;;;-0.07;77.56;100636.97;5015547;28;20187;-54
2022/03/06 00:33:55;;;;;;;15.63;11.60;;;;;;;-0.17;78.14;100628.09;5001968;28;20692;-56
2022/03/06 00:36:20;;;;;;;14.03;10.97;;;;;;;-0.23;78.44;100635.50;5001840;28;20260;-55
2022/03/06 00:38:46;;;;;;;16.53;12.30;;;;;;;-0.28;78.83;100637.00;5002120;28;20230;-53
2022/03/06 00:41:13;;;;;;;16.10;11.73;;;;;;;-0.29;78.92;100622.53;5007699;28;20199;-54
2022/03/06 00:43:38;;;;;;;15.53;12.43;;;;;;;-0.31;78.54;100633.50;5006014;28;20196;-55
2022/03/06 00:46:04;;;;;;;15.03;11.10;;;;;;;-0.32;78.39;100631.75;5001523;28;20638;-53
2022/03/06 00:48:30;;;;;;;16.00;11.50;;;;;;;-0.38;79.00;100630.66;5003888;28;20187;-53
2022/03/06 00:50:55;;;;;;;15.67;11.97;;;;;;;-0.40;79.12;100635.69;5008771;28;20206;-54
2022/03/06 00:53:21;;;;;;;15.30;11.67;;;;;;;-0.43;79.09;100635.56;5001245;28;21868;-55
2022/03/06 00:55:47;;;;;;;15.30;12.50;;;;;;;-0.44;79.59;100636.34;5003870;28;20285;-54
2022/03/06 00:58:12;;;;;;;15.50;11.63;;;;;;;-0.47;80.13;100633.69;5005742;28;20194;-54
2022/03/06 01:00:41;;;;;;;15.07;12.13;;;;;;;-0.47;80.15;100637.09;5004261;28;20225;-54
2022/03/06 01:03:09;;;;;;;15.30;11.60;;;;;;;-0.49;80.37;100635.28;5003312;28;20190;-54
2022/03/06 01:05:35;;;;;;;15.83;12.20;;;;;;;-0.51;80.24;100640.31;4999068;28;20272;-55
2022/03/06 01:08:02;;;;;;;14.60;11.57;;;;;;;-0.52;80.44;100642.78;5004956;28;20652;-54
2022/03/06 01:10:27;;;;;;;13.70;11.33;;;;;;;-0.58;80.49;100643.41;4997189;28;20210;-53
2022/03/06 01:12:53;;;;;;;15.87;12.13;;;;;;;-0.60;79.61;100644.16;4997304;28;20199;-54
2022/03/06 01:15:19;;;;;;;14.93;11.53;;;;;;;-0.65;79.72;100647.34;5020015;28;20207;-54
2022/03/06 01:17:44;;;;;;;15.67;11.20;;;;;;;-0.72;79.75;100645.38;5000164;28;20266;-54
2022/03/06 01:20:11;;;;;;;15.33;11.40;;;;;;;-0.71;79.58;100646.22;5005726;28;20664;-54
2022/03/06 01:22:36;;;;;;;16.27;11.80;;;;;;;-0.79;79.83;100646.78;5006660;28;20195;-54
2022/03/06 01:25:02;;;;;;;15.97;12.13;;;;;;;-0.79;80.36;100644.25;5001185;28;20207;-54
2022/03/06 01:27:27;;;;;;;13.87;11.37;;;;;;;-0.86;81.05;100644.75;5004555;28;20759;-54
2022/03/06 01:29:52;;;;;;;15.73;12.13;;;;;;;-0.94;81.48;100654.59;5001163;28;20209;-54
2022/03/06 01:32:18;;;;;;;16.30;12.30;;;;;;;-0.98;81.54;100655.25;5000814;28;20214;-54
2022/03/06 01:34:43;;;;;;;16.00;11.90;;;;;;;-1.00;81.84;100656.88;5001069;28;20217;-54
2022/03/06 01:37:08;;;;;;;17.20;12.23;;;;;;;-1.05;81.44;100655.81;5001567;28;20269;-54
2022/03/06 01:39:34;;;;;;;17.80;12.90;;;;;;;-1.16;81.96;100657.00;5000061;28;20611;-53
2022/03/06 01:41:59;;;;;;;17.57;13.33;;;;;;;-1.14;81.72;100655.41;5000471;28;20193;-54
2022/03/06 01:44:25;;;;;;;14.33;11.80;;;;;;;-1.16;81.96;100652.78;4995535;28;20639;-54
2022/03/06 01:46:50;;;;;;;16.80;12.57;;;;;;;-1.18;81.80;100649.31;5002183;28;20196;-54
2022/03/06 01:49:17;;;;;;;14.87;11.83;;;;;;;-1.15;81.94;100648.59;5003469;28;20232;-54
2022/03/06 01:51:43;;;;;;;16.37;13.07;;;;;;;-1.13;81.38;100657.13;4998408;28;20183;-54
2022/03/06 01:54:09;;;;;;;14.43;12.13;;;;;;;-1.16;81.98;100652.78;5003875;28;20213;-55
2022/03/06 01:56:35;;;;;;;14.90;12.30;;;;;;;-1.13;81.82;100652.03;5000470;28;20189;-54
2022/03/06 01:59:03;;;;;;;18.03;13.20;;;;;;;-1.16;81.92;100655.31;5001350;28;20202;-54
2022/03/06 02:01:30;;;;;;;15.83;13.17;;;;;;;-1.17;82.50;100645.09;5002983;28;20708;-54
2022/03/06 02:03:56;;;;;;;16.40;13.23;;;;;;;-1.17;83.19;100656.13;4997249;28;20193;-55
2022/03/06 02:06:25;;;;;;;16.03;11.93;;;;;;;-1.16;81.75;100649.38;5003573;28;20192;-54
2022/03/06 02:08:51;;;;;;;15.53;12.53;;;;;;;-1.16;82.60;100654.47;5002553;28;20279;-54
2022/03/06 02:11:17;;;;;;;17.23;12.27;;;;;;;-1.17;83.15;100645.09;5001439;28;20302;-54
2022/03/06 02:13:44;;;;;;;14.57;12.10;;;;;;;-1.17;83.22;100645.09;5003274;28;20191;-54
2022/03/06 02:16:10;;;;;;;15.33;12.30;;;;;;;-1.22;82.79;100642.38;4998775;28;20649;-54
2022/03/06 02:18:35;;;;;;;15.80;11.93;;;;;;;-1.18;81.37;100643.38;5007807;28;20192;-54
2022/03/06 02:21:11;;;;;;;15.77;11.63;;;;;;;-1.16;81.28;100649.38;5003041;28;20204;-54
2022/03/06 02:23:38;;;;;;;17.40;12.70;;;;;;;-1.12;81.23;100646.16;5005105;28;20213;-54
2022/03/06 02:26:06;;;;;;;15.63;11.90;;;;;;;-1.15;81.74;100651.97;5016882;28;20306;-54
2022/03/06 02:28:34;;;;;;;15.93;13.00;;;;;;;-1.16;81.68;100642.63;4997722;28;20216;-54
2022/03/06 02:31:00;;;;;;;15.43;12.03;;;;;;;-1.18;81.58;100651.84;4991022;28;20213;-54
2022/03/06 02:33:25;;;;;;;16.70;12.50;;;;;;;-1.21;82.18;100644.06;4999098;28;20564;-54
2022/03/06 02:35:51;;;;;;;16.37;12.47;;;;;;;-1.24;82.20;100649.91;4999931;28;20248;-53
2022/03/06 02:38:16;;;;;;;16.23;12.53;;;;;;;-1.20;81.14;100644.97;5003232;28;20200;-53
2022/03/06 02:40:42;;;;;;;16.27;12.23;;;;;;;-1.25;81.33;100638.00;5004152;28;20193;-54
2022/03/06 02:43:09;;;;;;;15.10;11.47;;;;;;;-1.33;81.63;100652.03;5000732;28;20275;-53
2022/03/06 02:45:35;;;;;;;15.63;12.03;;;;;;;-1.39;81.72;100650.09;5000616;28;20205;-54
2022/03/06 02:48:02;;;;;;;15.37;12.30;;;;;;;-1.41;81.71;100651.69;5001115;28;20553;-53
2022/03/06 02:50:31;;;;;;;16.03;12.13;;;;;;;-1.43;81.97;100643.13;5011660;28;20549;-54
2022/03/06 02:52:58;;;;;;;17.33;12.67;;;;;;;-1.46;82.45;100652.28;5010933;28;20217;-54
2022/03/06 02:55:24;;;;;;;16.03;12.93;;;;;;;-1.49;83.23;100649.59;5012300;28;20232;-55
2022/03/06 02:57:50;;;;;;;15.53;12.40;;;;;;;-1.55;83.67;100638.34;4999230;28;20190;-55
2022/03/06 03:00:18;;;;;;;15.90;12.60;;;;;;;-1.57;84.78;100649.25;5002188;28;20186;-54
2022/03/06 03:02:44;;;;;;;16.13;11.70;;;;;;;-1.58;85.60;100648.34;5002153;28;20238;-54
2022/03/06 03:05:11;;;;;;;15.93;12.37;;;;;;;-1.64;86.25;100650.63;5003614;28;20210;-54
2022/03/06 03:07:41;;;;;;;16.17;12.63;;;;;;;-1.73;86.55;100655.25;5005326;28;20209;-54
2022/03/06 03:10:09;;;;;;;15.43;11.83;;;;;;;-1.84;87.00;100647.16;4999746;28;20213;-54
2022/03/06 03:12:35;;;;;;;14.90;12.00;;;;;;;-1.94;86.94;100647.50;4999825;28;20193;-54
2022/03/06 03:15:01;;;;;;;13.37;10.87;;;;;;;-2.08;87.45;100657.88;4999143;28;20216;-54
2022/03/06 03:17:26;;;;;;;17.30;12.93;;;;;;;-2.15;87.50;100658.38;5001904;28;20189;-54
2022/03/06 03:19:51;;;;;;;16.73;12.50;;;;;;;-2.20;87.96;100650.56;5003687;28;20185;-54
2022/03/06 03:22:17;;;;;;;16.23;12.53;;;;;;;-2.24;88.28;100657.91;5004999;28;20588;-54
2022/03/06 03:24:42;;;;;;;17.47;13.30;;;;;;;-2.27;89.06;100658.66;5000812;28;20625;-54
2022/03/06 03:27:07;;;;;;;16.33;12.67;;;;;;;-2.23;89.42;100657.13;5000964;28;20228;-54
2022/03/06 03:29:33;;;;;;;16.40;13.33;;;;;;;-2.22;89.23;100664.81;5002006;28;20213;-54
2022/03/06 03:31:58;;;;;;;17.30;13.50;;;;;;;-2.19;89.77;100671.69;4999051;28;20233;-55
2022/03/06 03:34:23;;;;;;;17.23;13.63;;;;;;;-2.20;89.79;100659.81;4996965;28;20619;-54
2022/03/06 03:36:49;;;;;;;17.93;13.73;;;;;;;-2.23;89.92;100664.72;5000444;28;20693;-55
2022/03/06 03:39:14;;;;;;;16.03;12.97;;;;;;;-2.21;90.70;100663.16;5001205;28;20628;-54
2022/03/06 03:41:40;;;;;;;17.50;13.80;;;;;;;-2.15;91.17;100668.53;5001893;28;20243;-53
2022/03/06 03:44:05;;;;;;;16.53;12.93;;;;;;;-2.09;91.12;100673.03;5006382;28;20679;-54
2022/03/06 03:46:31;;;;;;;16.17;13.13;;;;;;;-2.07;90.81;100672.28;4998907;28;20194;-54
2022/03/06 03:48:56;;;;;;;17.03;12.77;;;;;;;-2.04;91.18;100667.38;5002884;28;20525;-54
2022/03/06 03:51:21;;;;;;;18.87;14.07;;;;;;;-2.01;91.31;100680.22;5004985;28;20255;-54
2022/03/06 03:53:47;;;;;;;17.67;13.67;;;;;;;-2.05;91.33;100674.91;5007660;28;20293;-54
2022/03/06 03:56:12;;;;;;;14.83;12.30;;;;;;;-2.11;91.58;100677.16;5016696;28;20233;-54
2022/03/06 03:58:38;;;;;;;18.07;13.37;;;;;;;-2.13;91.54;100687.22;5002869;28;20193;-53
2022/03/06 04:01:03;;;;;;;18.67;13.63;;;;;;;-2.13;91.29;100683.81;5003553;28;20200;-54
2022/03/06 04:03:29;;;;;;;17.60;13.63;;;;;;;-2.12;91.42;100683.91;5003713;28;20196;-53
2022/03/06 04:05:54;;;;;;;18.60;13.13;;;;;;;-2.10;91.57;100686.50;5004781;28;20956;-53
2022/03/06 04:08:20;;;;;;;17.30;12.63;;;;;;;-2.09;90.96;100690.78;4998297;28;20239;-53
2022/03/06 04:10:45;;;;;;;18.50;13.57;;;;;;;-2.03;90.04;100693.59;5003101;28;20630;-53
2022/03/06 04:13:11;;;;;;;18.77;13.87;;;;;;;-1.98;89.42;100691.31;5005902;28;20194;-54
2022/03/06 04:15:36;;;;;;;19.43;14.37;;;;;;;-1.99;88.86;100692.94;5000807;28;20248;-54
2022/03/06 04:18:03;;;;;;;18.73;13.30;;;;;;;-1.99;90.05;100700.56;4997929;28;20221;-53
2022/03/06 04:20:28;;;;;;;16.83;13.67;;;;;;;-1.97;89.47;100705.72;5001143;28;20289;-54
2022/03/06 04:22:55;;;;;;;17.83;13.47;;;;;;;-1.94;88.46;100696.59;5005180;28;20692;-53
2022/03/06 04:25:20;;;;;;;19.43;13.67;;;;;;;-1.93;88.22;100707.59;5003994;28;20791;-54
2022/03/06 04:27:46;;;;;;;16.97;13.07;;;;;;;-1.92;87.86;100710.22;5010255;28;20207;-54
2022/03/06 04:30:11;;;;;;;16.50;13.43;;;;;;;-1.88;87.82;100704.47;5004073;28;20214;-54
2022/03/06 04:32:37;;;;;;;16.13;12.50;;;;;;;-1.85;87.72;100711.38;5000606;28;20190;-53
2022/03/06 04:35:03;;;;;;;17.77;13.57;;;;;;;-1.87;88.40;100718.06;4998123;28;20201;-53
2022/03/06 04:37:29;;;;;;;17.53;13.53;;;;;;;-1.84;88.42;100715.66;5000185;28;20189;-56
2022/03/06 04:39:54;;;;;;;17.87;12.50;;;;;;;-1.89;88.73;100714.56;5003222;28;20189;-54
2022/03/06 04:42:20;;;;;;;17.77;13.47;;;;;;;-1.90;89.99;100713.72;5001322;28;20277;-54
2022/03/06 04:44:45;;;;;;;18.33;13.70;;;;;;;-1.88;90.48;100724.78;5001666;28;20566;-54
2022/03/06 04:47:10;;;;;;;18.20;13.03;;;;;;;-1.89;90.35;100724.72;5002357;28;20251;-53
2022/03/06 04:49:36;;;;;;;17.20;13.53;;;;;;;-1.92;90.53;100725.44;5000096;28;20281;-54
2022/03/06 04:52:01;;;;;;;16.97;12.77;;;;;;;-1.94;90.70;100728.69;5004648;28;20331;-54
2022/03/06 04:54:27;;;;;;;17.60;13.30;;;;;;;-1.92;90.71;100734.72;5003974;28;20205;-54
2022/03/06 04:56:52;;;;;;;16.47;12.27;;;;;;;-1.94;90.53;100738.81;4999458;28;21590;-56
2022/03/06 04:59:17;;;;;;;17.13;12.53;;;;;;;-1.91;90.01;100736.44;4999039;28;20189;-55
2022/03/06 05:01:43;;;;;;;15.80;12.67;;;;;;;-1.90;89.57;100738.19;5009939;28;20657;-53
2022/03/06 05:04:09;;;;;;;18.63;13.23;;;;;;;-1.91;89.45;100732.25;5003839;28;20239;-54
2022/03/06 05:06:35;;;;;;;16.37;12.77;;;;;;;-1.93;89.81;100736.38;5004411;28;20219;-54
2022/03/06 05:09:00;;;;;;;16.93;12.97;;;;;;;-1.90;89.98;100738.19;5006138;28;20604;-54
2022/03/06 05:11:26;;;;;;;18.07;13.73;;;;;;;-1.89;90.82;100737.41;5005797;28;20218;-54
2022/03/06 05:13:52;;;;;;;18.77;13.67;;;;;;;-1.91;91.23;100734.81;5010036;28;20525;-54
2022/03/06 05:16:17;;;;;;;17.37;13.43;;;;;;;-1.92;91.22;100738.13;5000852;28;20265;-53
2022/03/06 05:18:42;;;;;;;16.70;13.50;;;;;;;-1.93;90.82;100740.56;5003574;28;20185;-55
2022/03/06 05:21:08;;;;;;;18.03;13.23;;;;;;;-1.96;90.85;100741.31;5002226;28;20629;-54
2022/03/06 05:23:33;;;;;;;16.77;12.97;;;;;;;-1.96;91.39;100738.75;4999227;28;20230;-54
2022/03/06 05:25:59;;;;;;;18.80;13.50;;;;;;;-1.98;91.33;100747.09;5000728;28;20277;-55
2022/03/06 05:28:27;;;;;;;17.27;13.60;;;;;;;-2.00;91.62;100750.44;5008812;28;20247;-55
2022/03/06 05:30:52;;;;;;;17.57;14.33;;;;;;;-2.01;91.87;100751.22;5002438;28;20292;-54
2022/03/06 05:33:17;;;;;;;16.77;13.10;;;;;;;-2.07;91.59;100752.59;5000504;28;20273;-54
2022/03/06 05:35:43;;;;;;;18.07;13.40;;;;;;;-2.04;91.29;100751.06;4999424;28;20682;-54
2022/03/06 05:38:08;;;;;;;16.10;12.60;;;;;;;-2.05;91.48;100745.94;5001984;28;20237;-54
2022/03/06 05:40:34;;;;;;;19.00;14.03;;;;;;;-2.06;91.68;100756.88;5001173;28;20177;-54
2022/03/06 05:42:59;;;;;;;17.17;13.00;;;;;;;-2.10;92.37;100752.44;4998340;28;20279;-54
2022/03/06 05:45:25;;;;;;;18.47;13.53;;;;;;;-2.12;92.72;100757.44;5004452;28;20210;-54
2022/03/06 05:47:50;;;;;;;18.13;13.70;;;;;;;-2.09;92.55;100764.31;4999838;28;20257;-55
2022/03/06 05:50:16;;;;;;;16.83;13.47;;;;;;;-2.05;92.56;100756.09;4999595;28;20213;-54
2022/03/06 05:52:41;;;;;;;18.30;13.97;;;;;;;-2.06;92.48;100765.34;5006591;28;20555;-54
2022/03/06 05:55:07;;;;;;;18.47;13.57;;;;;;;-2.01;91.72;100761.38;5009395;28;20256;-54
2022/03/06 05:57:33;;;;;;;16.27;13.57;;;;;;;-2.05;91.94;100762.00;5010199;28;20184;-54
2022/03/06 05:59:58;;;;;;;17.87;13.50;;;;;;;-1.99;91.82;100763.97;4999705;28;20192;-54
2022/03/06 06:02:24;;;;;;;17.27;13.10;;;;;;;-1.98;92.05;100767.41;4995919;28;20626;-54
2022/03/06 06:04:50;;;;;;;19.00;14.23;;;;;;;-1.96;92.19;100776.81;4996620;28;20667;-54
2022/03/06 06:07:16;;;;;;;17.03;13.03;;;;;;;-1.98;92.40;100768.25;4997573;28;20223;-55
2022/03/06 06:09:41;;;;;;;17.23;14.07;;;;;;;-2.00;92.59;100765.66;5002297;28;20620;-54
2022/03/06 06:12:08;;;;;;;18.43;14.17;;;;;;;-2.00;92.75;100774.91;5001458;28;20188;-54
2022/03/06 06:14:34;;;;;;;17.60;13.67;;;;;;;-1.98;92.47;100773.31;5004062;28;20536;-54
2022/03/06 06:16:59;;;;;;;17.93;14.10;;;;;;;-1.98;92.47;100770.78;4998776;28;20196;-53
2022/03/06 06:19:24;;;;;;;18.07;14.03;;;;;;;-1.92;92.48;100773.66;5000494;28;20180;-54
2022/03/06 06:21:50;;;;;;;18.13;14.03;;;;;;;-1.89;92.26;100768.69;4996738;28;20188;-54
2022/03/06 06:24:16;;;;;;;17.90;13.97;;;;;;;-1.83;92.11;100775.78;5017562;28;20212;-54
2022/03/06 06:26:42;;;;;;;18.43;13.93;;;;;;;-1.78;91.91;100778.53;4999024;28;20222;-54
2022/03/06 06:29:08;;;;;;;17.33;13.57;;;;;;;-1.75;91.82;100776.16;5007482;28;20205;-54
2022/03/06 06:31:35;;;;;;;17.40;13.27;;;;;;;-1.73;92.08;100772.00;5003262;28;20795;-53
2022/03/06 06:34:00;;;;;;;19.50;13.20;;;;;;;-1.66;91.95;100778.25;5005541;28;20275;-55
2022/03/06 06:36:26;;;;;;;16.47;13.07;;;;;;;-1.56;92.03;100775.38;5000826;28;20299;-54
2022/03/06 06:38:52;;;;;;;17.27;13.90;;;;;;;-1.40;91.56;100775.31;4999398;28;20199;-54
2022/03/06 06:41:18;;;;;;;18.80;14.13;;;;;;;-1.27;91.25;100776.72;5002658;28;20194;-54
2022/03/06 06:43:43;;;;;;;17.47;13.50;;;;;;;-1.12;90.28;100770.63;5003683;28;20196;-53
2022/03/06 06:46:10;;;;;;;16.40;12.90;;;;;;;-1.09;89.65;100768.22;4998556;28;20208;-53
2022/03/06 06:48:35;;;;;;;17.53;13.97;;;;;;;-0.95;89.25;100777.34;4999084;28;20194;-53
2022/03/06 06:51:01;;;;;;;18.00;14.73;;;;;;;-0.85;89.14;100781.19;5009457;28;20208;-55
2022/03/06 06:53:26;;;;;;;17.63;13.57;;;;;;;-0.78;89.25;100788.31;5001854;28;20223;-55
2022/03/06 06:55:51;;;;;;;17.63;13.67;;;;;;;-0.65;88.53;100783.75;5005353;28;20217;-54
2022/03/06 06:58:17;;;;;;;18.37;14.30;;;;;;;-0.59;87.65;100778.94;5006154;28;20190;-54
2022/03/06 07:00:43;;;;;;;18.93;14.20;;;;;;;-0.56;87.38;100789.25;4998854;28;20189;-52
2022/03/06 07:03:09;;;;;;;19.70;14.10;;;;;;;-0.53;86.80;100786.84;5001876;28;20187;-52
2022/03/06 07:05:35;;;;;;;16.67;13.27;;;;;;;-0.43;86.89;100793.22;5012170;28;20734;-53
2022/03/06 07:08:00;;;;;;;17.20;13.97;;;;;;;-0.36;86.61;100794.34;5004782;28;20555;-52
2022/03/06 07:10:25;;;;;;;17.07;13.87;;;;;;;-0.26;86.35;100796.47;5006461;28;20208;-52
2022/03/06 07:12:54;;;;;;;18.83;14.43;;;;;;;-0.18;86.43;100794.25;5003746;28;20189;-51
2022/03/06 07:15:20;;;;;;;16.23;13.20;;;;;;;-0.14;86.13;100800.34;5000965;28;20209;-53
2022/03/06 07:17:46;;;;;;;18.20;14.30;;;;;;;-0.12;85.66;100803.81;5009398;28;20194;-52
2022/03/06 07:20:12;;;;;;;18.80;14.00;;;;;;;-0.05;85.40;100801.59;5003026;28;20200;-52
2022/03/06 07:22:37;;;;;;;18.20;14.00;;;;;;;0.01;85.55;100806.09;5004104;28;20223;-53
2022/03/06 07:25:04;;;;;;;17.97;13.77;;;;;;;0.08;85.55;100817.41;5003122;28;20592;-52
2022/03/06 07:27:29;;;;;;;20.70;14.70;;;;;;;0.10;85.34;100813.25;4999393;28;20191;-52
2022/03/06 07:29:56;;;;;;;19.53;14.07;;;;;;;0.12;84.72;100815.06;5008108;28;20573;-52
2022/03/06 07:32:22;;;;;;;16.23;14.03;;;;;;;0.18;84.63;100811.03;5005283;28;20190;-52
2022/03/06 07:34:47;;;;;;;18.13;14.43;;;;;;;0.27;84.65;100817.38;4998875;28;20213;-51
2022/03/06 07:37:12;;;;;;;18.20;13.77;;;;;;;0.33;84.69;100814.19;5006241;28;20218;-51
2022/03/06 07:39:38;;;;;;;16.67;13.87;;;;;;;0.40;84.20;100823.84;5003958;28;20243;-53
2022/03/06 07:42:03;;;;;;;18.70;14.63;;;;;;;0.47;83.83;100819.00;5005243;28;20384;-51
2022/03/06 07:44:29;;;;;;;18.53;14.73;;;;;;;0.52;83.63;100823.50;5002663;28;20350;-53
2022/03/06 07:46:54;;;;;;;17.23;14.10;;;;;;;0.55;83.28;100818.50;5001011;28;20559;-52
2022/03/06 07:49:19;;;;;;;17.07;14.13;;;;;;;0.59;83.05;100822.06;5015758;28;20194;-53
2022/03/06 07:51:45;;;;;;;17.33;14.57;;;;;;;0.60;83.22;100824.66;5011618;28;20229;-54
2022/03/06 07:54:14;;;;;;;17.97;14.67;;;;;;;0.65;82.90;100824.84;4999368;28;20272;-53
2022/03/06 07:56:40;;;;;;;16.27;13.57;;;;;;;0.69;83.27;100823.28;5000614;28;20203;-53
2022/03/06 07:59:06;;;;;;;17.47;14.27;;;;;;;0.70;83.27;100820.81;4998708;28;20202;-52
2022/03/06 08:01:31;;;;;;;17.53;14.30;;;;;;;0.75;82.58;100826.06;4998603;28;20189;-52
2022/03/06 08:03:56;;;;;;;16.67;13.77;;;;;;;0.85;82.70;100817.97;5000467;28;20189;-54
2022/03/06 08:06:23;;;;;;;16.70;13.63;;;;;;;0.95;82.34;100828.53;4999902;28;20196;-54
2022/03/06 08:08:48;;;;;;;18.07;14.40;;;;;;;0.97;82.01;100819.28;5010575;28;20219;-51
2022/03/06 08:11:13;;;;;;;18.23;14.20;;;;;;;1.04;82.05;100831.44;5000800;28;20251;-54
2022/03/06 08:13:39;;;;;;;17.20;14.20;;;;;;;1.10;81.77;100825.69;4997442;28;20655;-52
2022/03/06 08:16:05;;;;;;;18.47;15.03;;;;;;;1.11;81.81;100827.44;5004603;28;20208;-52
2022/03/06 08:18:30;;;;;;;18.07;14.30;;;;;;;1.27;81.86;100836.56;4997614;28;20647;-52
2022/03/06 08:20:56;;;;;;;17.00;14.03;;;;;;;1.25;81.55;100831.38;5002095;28;20212;-52
2022/03/06 08:23:21;;;;;;;17.73;14.40;;;;;;;1.27;81.66;100827.22;5004568;28;20188;-52
2022/03/06 08:25:46;;;;;;;18.00;14.53;;;;;;;1.33;81.22;100830.00;5021158;28;20204;-51
2022/03/06 08:28:12;;;;;;;17.30;14.37;;;;;;;1.32;81.09;100829.94;4998352;28;20192;-53
2022/03/06 08:30:37;;;;;;;16.77;14.47;;;;;;;1.40;81.38;100833.66;5000192;28;20212;-53
2022/03/06 08:33:02;;;;;;;18.47;14.37;;;;;;;1.44;81.53;100832.09;5001500;28;20192;-53
2022/03/06 08:35:28;;;;;;;16.37;14.07;;;;;;;1.51;81.53;100828.97;4998848;28;20758;-50
2022/03/06 08:37:54;;;;;;;17.93;14.63;;;;;;;1.55;81.47;100825.69;5016620;28;20200;-52
2022/03/06 08:40:20;;;;;;;17.87;15.10;;;;;;;1.66;81.44;100828.63;5000934;28;21850;-51
2022/03/06 08:42:46;;;;;;;17.23;14.63;;;;;;;1.74;81.41;100829.75;4999649;28;20679;-51
2022/03/06 08:45:11;;;;;;;17.80;14.17;;;;;;;1.78;80.55;100830.75;4996865;28;20213;-51
2022/03/06 08:47:36;;;;;;;19.53;14.70;;;;;;;1.82;80.72;100827.47;4995648;28;20200;-52
2022/03/06 08:50:02;;;;;;;17.07;14.40;;;;;;;1.91;80.66;100832.03;5002272;28;20209;-53
2022/03/06 08:52:28;;;;;;;17.37;13.97;;;;;;;2.00;80.10;100834.06;5004154;28;20648;-53
2022/03/06 08:54:53;;;;;;;17.37;14.97;;;;;;;2.04;80.07;100830.81;5009994;28;20212;-53
2022/03/06 08:57:18;;;;;;;15.83;13.97;;;;;;;2.10;79.50;100833.56;5006224;28;20232;-51
2022/03/06 08:59:44;;;;;;;18.40;14.50;;;;;;;2.22;79.70;100830.56;5007290;28;20184;-52
2022/03/06 09:02:09;;;;;;;18.90;14.70;;;;;;;2.23;78.65;100829.75;5013736;28;20262;-54
2022/03/06 09:04:34;;;;;;;18.70;15.27;;;;;;;2.33;79.14;100821.59;5011018;28;20214;-53
2022/03/06 09:07:00;;;;;;;17.00;14.20;;;;;;;2.50;78.81;100821.25;5003369;28;20262;-52
2022/03/06 09:09:25;;;;;;;19.17;15.10;;;;;;;2.57;78.46;100818.94;5005923;28;20195;-54
2022/03/06 09:11:51;;;;;;;16.47;14.17;;;;;;;2.58;77.91;100815.56;4998717;28;20195;-51
2022/03/06 09:14:19;;;;;;;16.43;13.83;;;;;;;2.74;77.86;100811.84;5008475;28;20215;-53
2022/03/06 09:16:44;;;;;;;17.67;15.07;;;;;;;2.99;77.86;100825.38;5004834;28;20181;-54
2022/03/06 09:19:10;;;;;;;17.20;14.53;;;;;;;3.10;77.13;100814.63;5013426;28;20188;-53
2022/03/06 09:21:35;;;;;;;19.33;15.57;;;;;;;3.16;76.73;100817.34;5006250;28;20241;-53
2022/03/06 09:24:01;;;;;;;19.13;15.17;;;;;;;3.04;75.85;100820.38;4994889;28;20185;-52
2022/03/06 09:26:26;;;;;;;17.07;14.40;;;;;;;3.12;76.46;100818.94;5006425;28;20203;-54
2022/03/06 09:28:51;;;;;;;17.90;15.53;;;;;;;3.23;75.95;100818.38;5006547;28;20275;-54
2022/03/06 09:31:17;;;;;;;18.87;15.43;;;;;;;3.35;76.13;100816.19;5005869;28;20200;-53
2022/03/06 09:33:42;;;;;;;16.83;14.67;;;;;;;3.47;75.84;100815.69;5002533;28;20196;-54
2022/03/06 09:36:07;;;;;;;17.93;15.40;;;;;;;3.45;74.88;100825.88;5013393;28;20241;-54
2022/03/06 09:38:33;;;;;;;15.63;13.83;;;;;;;3.52;75.52;100826.91;5035937;28;20321;-53
2022/03/06 09:41:04;;;;;;;17.10;14.70;;;;;;;3.55;75.68;100818.44;5026111;28;20195;-53
2022/03/06 09:43:30;;;;;;;18.03;14.27;;;;;;;3.59;75.23;100823.69;5019332;28;20183;-53
2022/03/06 09:46:16;;;;;;;17.87;14.83;;;;;;;3.58;73.94;100831.34;5011489;28;20728;-53
2022/03/06 09:48:42;;;;;;;20.47;15.37;;;;;;;3.57;74.14;100817.66;5014948;28;20651;-53
2022/03/06 09:51:07;;;;;;;18.93;15.63;;;;;;;3.60;74.27;100825.44;5007858;28;20228;-53
2022/03/06 09:53:33;;;;;;;19.37;15.47;;;;;;;3.60;72.96;100824.59;5013884;28;20211;-54
2022/03/06 09:55:58;;;;;;;17.17;14.37;;;;;;;3.63;72.10;100822.13;5016239;28;20212;-53
2022/03/06 09:58:24;;;;;;;17.67;15.57;;;;;;;3.73;72.99;100816.41;5004569;28;20912;-55
2022/03/06 10:00:50;;;;;;;17.43;14.93;;;;;;;3.83;72.80;100819.22;5012570;28;20195;-54
2022/03/06 10:03:21;;;;;;;16.47;14.53;;;;;;;3.91;72.62;100825.44;5006763;28;20203;-55
2022/03/06 10:05:47;;;;;;;18.03;14.40;;;;;;;4.04;71.84;100821.47;4998195;28;20584;-53
2022/03/06 10:08:23;;;;;;;16.97;14.83;;;;;;;3.91;70.81;100807.50;5022526;28;20223;-54
2022/03/06 10:10:53;;;;;;;17.50;14.97;;;;;;;3.91;70.77;100825.44;5014905;28;20250;-55
2022/03/06 10:13:18;;;;;;;17.23;15.33;;;;;;;3.97;70.76;100820.44;5006181;28;20192;-55
2022/03/06 10:16:22;;;;;;;16.67;13.97;;;;;;;3.81;70.31;100816.63;4999531;28;20273;-55
2022/03/06 10:18:49;;;;;;;18.07;15.40;;;;;;;3.80;70.30;100818.31;5011710;28;20192;-55
2022/03/06 10:21:24;;;;;;;17.87;14.73;;;;;;;4.01;70.36;100823.97;5006855;28;20218;-55
2022/03/06 10:23:57;;;;;;;16.13;14.10;;;;;;;4.02;69.25;100818.00;5002673;28;20282;-55
2022/03/06 10:26:30;;;;;;;15.70;14.00;;;;;;;4.08;69.36;100819.03;5021590;28;20197;-55
2022/03/06 10:28:59;;;;;;;16.10;14.20;;;;;;;4.07;68.81;100822.44;5028653;28;20198;-54
2022/03/06 10:31:33;;;;;;;16.50;14.13;;;;;;;3.97;68.86;100835.81;5004389;28;20243;-55
2022/03/06 10:34:01;;;;;;;15.60;13.67;;;;;;;4.03;69.08;100823.19;5007104;28;20180;-54
2022/03/06 10:36:32;;;;;;;16.20;14.10;;;;;;;4.22;68.45;100826.25;5005644;28;20207;-54
2022/03/06 10:38:58;;;;;;;18.73;15.03;;;;;;;4.34;66.84;100823.97;5017101;28;20228;-54
2022/03/06 10:41:33;;;;;;;17.97;14.83;;;;;;;4.45;68.12;100818.25;4997237;28;20193;-55
2022/03/06 10:43:59;;;;;;;16.67;13.40;;;;;;;4.45;66.38;100820.81;5000536;28;20199;-54
2022/03/06 10:46:24;;;;;;;16.93;13.60;;;;;;;4.57;66.74;100842.50;5005029;28;20192;-55
2022/03/06 10:48:59;;;;;;;17.50;13.57;;;;;;;4.57;66.11;100839.03;5019813;28;20277;-56
2022/03/06 10:51:26;;;;;;;16.50;14.37;;;;;;;4.64;65.37;100822.13;5011589;28;20226;-55
2022/03/06 10:53:53;;;;;;;16.23;13.90;;;;;;;4.60;65.12;100835.72;5005152;28;20604;-55
2022/03/06 10:56:20;;;;;;;16.00;13.57;;;;;;;4.50;64.50;100824.38;5008665;28;20192;-56
2022/03/06 10:58:47;;;;;;;16.57;14.40;;;;;;;4.47;65.48;100825.13;5009254;28;20185;-55
2022/03/06 11:01:13;;;;;;;18.57;14.10;;;;;;;4.45;64.71;100836.19;5010268;28;20532;-55
2022/03/06 11:03:39;;;;;;;15.23;13.63;;;;;;;4.41;63.95;100828.41;5013116;28;20552;-54
2022/03/06 11:06:07;;;;;;;14.23;12.70;;;;;;;4.42;63.15;100831.88;5009288;28;20214;-55
2022/03/06 11:08:34;;;;;;;14.17;12.20;;;;;;;4.35;63.00;100824.84;5006098;28;20189;-55